Time;durP1;ratioP1;P1;durP2;ratioP2;P2;SDS_P1;SDS_P2;PMS_P1;PMS_P2;Temp;Humidity;BMP_temperature;BMP_pressure;BME280_temperature;BME280_humidity;BME280_pressure;Samples;Min_cycle;Max_cycle;Signal;HPM_P1;HPM_P2
2022/08/13 00:00:11;;;;;;;3.67;2.80;;;;;;;21.90;34.79;101115.72;677500;28;1844;-89
2022/08/13 00:00:36;;;;;;;4.77;2.70;;;;;;;21.88;34.99;101117.53;677777;29;1707;-89
2022/08/13 00:00:59;;;;;;;4.07;2.90;;;;;;;21.86;35.06;101118.44;679881;28;1197;-90
2022/08/13 00:01:22;;;;;;;3.75;3.00;;;;;;;21.87;35.18;101110.44;675893;28;2145;-88
2022/08/13 00:01:43;;;;;;;3.50;3.20;;;;;;;21.87;35.01;101121.06;673186;29;1253;-89
2022/08/13 00:02:10;;;;;;;3.22;2.92;;;;;;;21.84;35.11;101115.81;680800;28;2111;-89
2022/08/13 00:02:31;;;;;;;4.85;3.00;;;;;;;21.86;34.92;101115.78;683304;28;1533;-89
2022/08/13 00:02:52;;;;;;;5.00;3.10;;;;;;;21.78;35.06;101110.59;683348;29;1204;-89
2022/08/13 00:03:14;;;;;;;5.40;3.20;;;;;;;21.85;35.07;101124.66;675275;29;2127;-88
2022/08/13 00:03:36;;;;;;;3.75;3.30;;;;;;;21.78;35.22;101122.06;678388;29;1720;-89
2022/08/13 00:03:57;;;;;;;3.65;3.10;;;;;;;21.78;35.21;101115.91;681423;29;1285;-90
2022/08/13 00:04:18;;;;;;;3.55;3.10;;;;;;;21.81;35.45;101130.91;680349;29;1423;-89
2022/08/13 00:04:50;;;;;;;3.50;3.15;;;;;;;21.74;35.21;101115.06;673383;29;1344;-89
2022/08/13 00:05:29;;;;;;;5.40;2.90;;;;;;;21.76;35.57;101123.00;677505;29;1717;-89
2022/08/13 00:05:50;;;;;;;5.57;3.03;;;;;;;21.76;35.41;101117.69;681175;29;1317;-89
2022/08/13 00:06:11;;;;;;;4.00;3.00;;;;;;;21.77;35.48;101127.44;678583;29;2051;-89
2022/08/13 00:07:08;;;;;;;5.07;3.20;;;;;;;21.76;35.55;101117.69;683155;28;1237;-89
2022/08/13 00:07:29;;;;;;;5.50;3.20;;;;;;;21.73;35.52;101118.63;682933;28;1703;-89
2022/08/13 00:07:51;;;;;;;5.63;3.20;;;;;;;21.77;35.65;101119.47;681339;29;1544;-89
2022/08/13 00:08:12;;;;;;;6.05;3.20;;;;;;;21.74;35.54;101120.38;683605;28;1969;-89
2022/08/13 00:08:33;;;;;;;7.35;3.33;;;;;;;21.75;35.46;101123.88;683463;29;1549;-88
2022/08/13 00:08:57;;;;;;;4.80;3.10;;;;;;;21.76;35.44;101125.69;675925;29;1140;-89
2022/08/13 00:09:18;;;;;;;3.97;3.00;;;;;;;21.70;35.57;101115.97;679392;29;1442;-88
2022/08/13 00:09:42;;;;;;;4.05;3.00;;;;;;;21.73;35.36;101128.34;680062;29;1331;-90
2022/08/13 00:10:10;;;;;;;4.10;2.70;;;;;;;21.70;35.55;101118.63;682978;28;2052;-89
2022/08/13 00:10:32;;;;;;;3.58;2.75;;;;;;;21.70;35.72;101118.63;687702;28;1341;-90
2022/08/13 00:10:53;;;;;;;3.67;2.90;;;;;;;21.72;35.49;101123.94;687200;28;1188;-90
2022/08/13 00:12:56;;;;;;;4.30;3.00;;;;;;;21.71;35.52;101122.19;683244;28;2108;-89
2022/08/13 00:13:18;;;;;;;4.95;3.15;;;;;;;21.63;35.60;101112.53;681595;28;2091;-90
2022/08/13 00:13:41;;;;;;;3.85;3.20;;;;;;;21.67;35.70;101118.69;685131;28;1361;-89
2022/08/13 00:14:03;;;;;;;3.50;3.20;;;;;;;21.69;35.86;101121.34;677543;29;1425;-89
2022/08/13 00:14:26;;;;;;;3.38;3.08;;;;;;;21.62;35.92;101109.91;682110;28;1516;-90
2022/08/13 00:14:47;;;;;;;4.13;3.10;;;;;;;21.65;36.00;101120.50;682700;28;1273;-90
2022/08/13 00:15:14;;;;;;;4.53;3.30;;;;;;;21.66;36.09;101129.31;673205;28;2080;-90
2022/08/13 00:15:39;;;;;;;4.43;3.20;;;;;;;21.68;35.99;101140.84;683290;28;1247;-90
2022/08/13 00:16:01;;;;;;;4.10;3.25;;;;;;;21.63;36.09;101123.16;690340;28;1194;-90
2022/08/13 00:16:22;;;;;;;3.65;3.20;;;;;;;21.65;36.05;101125.81;678738;28;2259;-90
2022/08/13 00:16:44;;;;;;;4.38;3.60;;;;;;;21.61;36.10;101122.31;677083;29;1229;-90
2022/08/13 00:17:07;;;;;;;4.53;3.60;;;;;;;21.59;36.08;101116.13;677959;29;2239;-89
2022/08/13 00:17:33;;;;;;;4.55;3.13;;;;;;;21.61;35.99;101124.97;676742;29;1276;-90
2022/08/13 00:17:59;;;;;;;4.80;3.00;;;;;;;21.60;35.91;101117.00;680079;29;1213;-90
2022/08/13 00:18:21;;;;;;;5.93;3.25;;;;;;;21.61;35.60;101122.31;683955;28;2054;-90
2022/08/13 00:18:43;;;;;;;5.95;3.30;;;;;;;21.55;35.90;101118.84;682330;28;1220;-90
2022/08/13 00:19:04;;;;;;;4.25;3.40;;;;;;;21.54;35.93;101117.06;679479;29;2022;-89
2022/08/13 00:19:26;;;;;;;3.90;3.20;;;;;;;21.53;35.93;101124.19;682151;28;1569;-90
2022/08/13 00:19:50;;;;;;;5.50;3.10;;;;;;;21.48;36.00;101113.59;685004;28;1359;-90
2022/08/13 00:20:11;;;;;;;5.32;3.20;;;;;;;21.54;36.09;101128.59;678866;29;2029;-89
2022/08/13 00:20:39;;;;;;;4.82;3.00;;;;;;;21.44;35.99;101114.50;676814;29;1609;-90
2022/08/13 00:21:00;;;;;;;4.80;3.20;;;;;;;21.44;36.07;101116.28;684641;28;1438;-90
2022/08/13 00:21:21;;;;;;;4.90;3.10;;;;;;;21.42;36.08;101120.72;678698;29;1820;-89
2022/08/13 00:21:42;;;;;;;6.10;3.35;;;;;;;21.45;35.96;101126.03;677120;29;1253;-89
2022/08/13 00:22:03;;;;;;;5.65;3.20;;;;;;;21.41;36.07;101116.31;682791;28;1245;-89
2022/08/13 00:22:26;;;;;;;4.60;3.10;;;;;;;21.41;36.00;101122.53;682354;28;1588;-89
2022/08/13 00:22:48;;;;;;;5.90;3.10;;;;;;;21.43;36.07;101130.44;674766;29;1391;-89
2022/08/13 00:23:11;;;;;;;7.50;3.28;;;;;;;21.40;35.93;101120.78;679870;28;1835;-89
2022/08/13 00:23:32;;;;;;;7.70;3.33;;;;;;;21.36;35.99;101125.22;684186;28;1778;-90
2022/08/13 00:23:54;;;;;;;5.70;3.20;;;;;;;21.35;36.29;101123.44;686274;28;1468;-90
2022/08/13 00:24:15;;;;;;;4.30;3.03;;;;;;;21.34;36.12;101126.16;679117;29;1947;-90
2022/08/13 00:24:38;;;;;;;4.20;3.10;;;;;;;21.29;36.38;101112.94;677027;29;1764;-90
2022/08/13 00:25:01;;;;;;;4.00;3.10;;;;;;;21.27;36.30;101114.69;682142;28;1517;-90
2022/08/13 00:25:23;;;;;;;3.60;3.00;;;;;;;21.33;36.24;101135.00;679035;29;2031;-90
2022/08/13 00:25:47;;;;;;;5.55;3.15;;;;;;;21.31;36.57;101126.16;683096;28;1245;-90
2022/08/13 00:26:08;;;;;;;6.10;3.20;;;;;;;21.30;36.33;101119.09;687185;28;1592;-90
2022/08/13 00:26:33;;;;;;;7.32;3.13;;;;;;;21.27;36.52;101124.44;676912;29;1698;-90
2022/08/13 00:26:59;;;;;;;4.97;2.97;;;;;;;21.25;36.34;101124.47;683341;28;1277;-89
2022/08/13 00:27:22;;;;;;;3.42;2.90;;;;;;;21.19;36.52;101105.94;684860;28;1685;-89
2022/08/13 00:27:47;;;;;;;3.53;3.10;;;;;;;21.19;36.50;101116.56;675364;29;1511;-90
2022/08/13 00:28:08;;;;;;;3.80;3.30;;;;;;;21.22;36.49;101114.75;680621;29;1790;-89
2022/08/13 00:28:29;;;;;;;4.28;3.50;;;;;;;21.27;36.43;101124.44;685778;28;1662;-90
2022/08/13 00:28:54;;;;;;;4.60;3.45;;;;;;;21.24;36.26;101125.34;680804;29;1317;-90
2022/08/13 00:29:15;;;;;;;4.30;3.33;;;;;;;21.19;36.40;101114.78;674282;29;1586;-89
2022/08/13 00:29:38;;;;;;;3.55;3.00;;;;;;;21.27;36.35;101127.09;680329;29;1621;-89
2022/08/13 00:29:59;;;;;;;3.95;3.15;;;;;;;21.19;36.32;101111.25;685379;28;1206;-90
2022/08/13 00:30:20;;;;;;;4.20;3.20;;;;;;;21.24;36.37;101128.00;684128;28;2077;-90
2022/08/13 00:30:41;;;;;;;4.07;3.15;;;;;;;21.18;36.43;101121.00;682350;28;1215;-90
2022/08/13 00:31:05;;;;;;;3.38;3.08;;;;;;;21.20;36.58;101123.63;675950;29;1440;-90
2022/08/13 00:31:27;;;;;;;3.50;3.13;;;;;;;21.22;36.59;101127.16;683628;28;1690;-90
2022/08/13 00:31:50;;;;;;;3.70;3.10;;;;;;;21.15;36.57;101114.84;685828;28;1112;-89
2022/08/13 00:32:10;;;;;;;3.58;3.00;;;;;;;21.20;36.84;101123.63;681328;28;1956;-90
2022/08/13 00:32:32;;;;;;;3.17;2.80;;;;;;;21.18;36.72;101125.41;680581;28;1751;-90
2022/08/13 00:32:54;;;;;;;6.82;3.28;;;;;;;21.20;36.68;101131.59;677872;28;1219;-89
2022/08/13 00:33:21;;;;;;;7.00;3.50;;;;;;;21.19;36.87;101127.19;679170;29;2022;-90
2022/08/13 00:33:43;;;;;;;6.28;3.50;;;;;;;21.18;36.59;101125.41;682545;28;1350;-89
2022/08/13 00:34:04;;;;;;;6.30;3.10;;;;;;;21.18;36.54;101117.47;686770;28;1512;-90
2022/08/13 00:34:27;;;;;;;6.20;3.28;;;;;;;21.19;36.54;101129.81;680172;29;1604;-90
2022/08/13 00:34:49;;;;;;;5.30;3.10;;;;;;;21.21;36.76;101125.41;677998;28;1321;-89
2022/08/13 00:35:12;;;;;;;6.93;3.20;;;;;;;21.17;36.81;101118.34;683744;28;1948;-89
2022/08/13 00:35:36;;;;;;;11.15;3.47;;;;;;;21.20;36.61;101123.63;677642;28;1693;-90
2022/08/13 00:35:57;;;;;;;7.00;3.20;;;;;;;21.16;36.72;101121.91;677948;29;1314;-90
2022/08/13 00:36:18;;;;;;;6.60;3.10;;;;;;;21.19;36.78;101117.44;678782;29;2066;-89
2022/08/13 00:36:39;;;;;;;3.33;3.03;;;;;;;21.19;36.80;101128.06;677613;28;1241;-90
2022/08/13 00:37:00;;;;;;;3.50;3.20;;;;;;;21.18;36.78;101112.16;692963;28;1182;-89
2022/08/13 00:37:22;;;;;;;3.40;3.10;;;;;;;21.17;36.62;101113.06;684858;28;2201;-90
2022/08/13 00:37:43;;;;;;;3.30;3.00;;;;;;;21.18;36.75;101113.03;680138;29;1264;-89
2022/08/13 00:38:09;;;;;;;4.30;3.10;;;;;;;21.21;36.84;101122.75;674763;29;1237;-90
2022/08/13 00:38:30;;;;;;;4.05;3.00;;;;;;;21.14;36.56;101107.78;680018;28;1474;-90
2022/08/13 00:38:53;;;;;;;3.20;3.00;;;;;;;21.20;36.82;101120.97;680047;29;1256;-90
2022/08/13 00:39:14;;;;;;;3.30;3.00;;;;;;;21.17;36.84;101121.91;680877;29;1973;-89
2022/08/13 00:39:37;;;;;;;3.20;2.90;;;;;;;21.10;36.99;101107.81;681788;29;1735;-89
2022/08/13 00:39:57;;;;;;;3.10;2.80;;;;;;;21.10;36.77;101114.91;679860;29;1204;-89
2022/08/13 00:40:20;;;;;;;3.35;2.85;;;;;;;21.12;36.80;101118.41;680267;29;2017;-89
2022/08/13 00:40:50;;;;;;;4.03;3.28;;;;;;;21.13;36.87;101117.50;677136;29;1400;-90
2022/08/13 00:41:38;;;;;;;3.95;3.30;;;;;;;21.12;36.81;101120.16;679302;28;1927;-89
2022/08/13 00:41:58;;;;;;;5.57;3.40;;;;;;;21.04;36.88;101107.91;679861;29;1072;-89
2022/08/13 00:42:27;;;;;;;5.88;3.40;;;;;;;21.10;36.90;101117.56;676176;29;2099;-89
2022/08/13 00:42:48;;;;;;;6.53;3.10;;;;;;;21.10;36.86;101117.56;679917;29;1094;-89
2022/08/13 00:43:09;;;;;;;5.88;3.50;;;;;;;21.06;37.02;101111.41;683262;28;1935;-90
2022/08/13 00:43:33;;;;;;;7.00;3.50;;;;;;;21.08;37.03;101114.91;678839;29;1500;-90
2022/08/13 00:43:54;;;;;;;5.65;3.38;;;;;;;21.09;36.96;101114.00;674773;29;1212;-90
2022/08/13 00:44:18;;;;;;;4.80;3.08;;;;;;;21.07;36.94;101114.91;681302;28;1912;-89
2022/08/13 00:44:39;;;;;;;5.00;3.00;;;;;;;21.06;37.15;101114.06;684533;28;1304;-89
2022/08/13 00:45:00;;;;;;;4.80;2.90;;;;;;;21.04;36.95;101107.00;682185;29;1424;-89
2022/08/13 00:45:21;;;;;;;4.22;2.88;;;;;;;21.08;36.88;101124.63;676235;28;1610;-90
2022/08/13 00:45:42;;;;;;;7.05;3.20;;;;;;;20.98;37.28;101110.59;682952;28;1323;-90
2022/08/13 00:46:04;;;;;;;6.30;3.30;;;;;;;20.98;37.12;101112.38;680278;28;1366;-89
2022/08/13 00:46:25;;;;;;;5.88;3.30;;;;;;;20.98;37.35;101115.91;682020;29;1571;-90
2022/08/13 00:48:41;;;;;;;4.10;3.40;;;;;;;20.98;37.50;101110.59;689713;28;1256;-89
2022/08/13 00:48:49;;;;;;;8.20;3.30;;;;;;;20.90;37.50;101109.81;682540;28;1295;-89
2022/08/13 00:49:12;;;;;;;5.10;3.17;;;;;;;20.88;37.62;101107.16;680771;28;1999;-89
2022/08/13 00:49:33;;;;;;;3.40;3.10;;;;;;;20.90;37.52;101115.97;676233;29;1717;-89
2022/08/13 00:49:54;;;;;;;4.10;3.00;;;;;;;20.82;37.58;101108.09;682493;28;1301;-90
2022/08/13 00:50:15;;;;;;;4.07;3.00;;;;;;;20.77;37.49;101096.66;684596;28;1964;-90
2022/08/13 00:50:36;;;;;;;3.65;3.10;;;;;;;20.87;37.59;101117.78;684850;28;1679;-90
2022/08/13 00:50:58;;;;;;;4.10;3.50;;;;;;;20.87;37.37;101117.78;679883;28;1347;-89
2022/08/13 00:51:21;;;;;;;4.40;3.60;;;;;;;20.79;37.45;101105.47;679036;29;1968;-90
2022/08/13 00:51:44;;;;;;;4.78;3.50;;;;;;;20.81;37.29;101101.03;677147;29;1243;-89
2022/08/13 00:52:07;;;;;;;4.30;3.40;;;;;;;20.80;37.62;101098.41;684681;28;1980;-90
2022/08/13 00:52:32;;;;;;;4.72;3.40;;;;;;;20.87;37.84;101116.00;684837;28;1750;-89
2022/08/13 00:52:53;;;;;;;5.00;3.65;;;;;;;20.81;37.73;101103.69;677396;29;1221;-90
2022/08/13 00:53:17;;;;;;;5.30;3.80;;;;;;;20.82;38.07;101110.75;681412;28;2032;-89
2022/08/13 00:53:39;;;;;;;3.88;3.50;;;;;;;20.81;37.91;101101.03;682091;29;1836;-89
2022/08/13 00:54:02;;;;;;;4.50;3.38;;;;;;;20.82;37.81;101102.78;672075;29;1192;-89
2022/08/13 00:54:24;;;;;;;4.45;3.30;;;;;;;20.83;37.96;101103.66;678645;29;2168;-90
2022/08/13 00:54:45;;;;;;;5.25;3.40;;;;;;;20.85;37.89;101115.16;679673;29;1351;-89
2022/08/13 00:55:09;;;;;;;4.50;3.55;;;;;;;20.84;37.96;101105.41;678892;29;1891;-89
2022/08/13 00:55:31;;;;;;;4.18;3.70;;;;;;;20.86;38.16;101108.06;684047;28;1519;-89
2022/08/13 00:55:56;;;;;;;4.72;3.70;;;;;;;20.84;37.98;101107.19;679761;29;1329;-89
2022/08/13 00:56:17;;;;;;;4.72;3.70;;;;;;;20.87;38.24;101115.13;681108;28;1838;-89
2022/08/13 00:56:38;;;;;;;5.30;3.60;;;;;;;20.84;38.24;101110.72;682334;28;1304;-89
2022/08/13 00:56:59;;;;;;;4.38;3.45;;;;;;;20.89;38.25;101114.22;679337;29;1216;-90
2022/08/13 00:57:20;;;;;;;5.47;3.40;;;;;;;20.88;38.23;101115.13;681824;28;1707;-89
2022/08/13 00:57:44;;;;;;;5.65;3.35;;;;;;;20.88;38.11;101117.75;677097;29;1180;-89
2022/08/13 00:58:05;;;;;;;5.10;3.30;;;;;;;20.86;38.32;101108.94;683706;28;1310;-89
2022/08/13 00:58:27;;;;;;;3.58;3.20;;;;;;;20.84;38.29;101108.06;679441;29;1439;-88
2022/08/13 00:58:49;;;;;;;5.07;3.30;;;;;;;20.84;38.26;101109.84;677661;28;1352;-88
2022/08/13 00:59:14;;;;;;;5.80;3.40;;;;;;;20.80;38.12;101098.41;680052;28;2028;-88
2022/08/13 00:59:35;;;;;;;6.28;3.50;;;;;;;20.76;38.25;101101.94;685657;28;1483;-89
2022/08/13 00:59:56;;;;;;;4.60;3.40;;;;;;;20.81;38.19;101106.34;682525;28;1145;-88
2022/08/13 01:00:20;;;;;;;4.93;3.50;;;;;;;20.79;38.25;101101.94;681066;28;1969;-88
2022/08/13 01:00:41;;;;;;;5.43;3.80;;;;;;;20.79;38.28;101102.81;674328;29;1214;-88
2022/08/13 01:01:03;;;;;;;5.22;3.53;;;;;;;20.80;38.15;101098.41;683995;28;2182;-88
2022/08/13 01:01:26;;;;;;;6.13;3.70;;;;;;;20.78;38.31;101103.69;687542;28;1705;-88
2022/08/13 01:01:47;;;;;;;6.30;3.70;;;;;;;20.78;38.09;101101.06;672104;29;1397;-89
2022/08/13 01:02:09;;;;;;;6.80;3.70;;;;;;;20.78;38.36;101105.50;680052;28;2038;-89
2022/08/13 01:02:30;;;;;;;4.40;3.40;;;;;;;20.78;38.33;101108.16;688252;28;1590;-89
2022/08/13 01:02:54;;;;;;;4.50;3.30;;;;;;;20.76;38.49;101105.50;685148;28;1522;-88
2022/08/13 01:03:17;;;;;;;6.90;3.53;;;;;;;20.74;38.27;101102.00;680284;28;1982;-88
2022/08/13 01:03:38;;;;;;;9.50;3.65;;;;;;;20.75;38.39;101106.41;682479;28;1802;-88
2022/08/13 01:04:02;;;;;;;13.80;3.58;;;;;;;20.70;38.29;101102.91;679755;29;1208;-88
2022/08/13 01:04:25;;;;;;;13.88;3.42;;;;;;;20.71;38.45;101109.97;681991;28;2009;-88
2022/08/13 01:04:47;;;;;;;13.00;3.60;;;;;;;20.69;38.51;101111.72;687852;28;1360;-88
2022/08/13 01:05:09;;;;;;;5.72;3.50;;;;;;;20.67;38.56;101108.22;677650;28;2052;-88
2022/08/13 01:05:31;;;;;;;5.65;3.50;;;;;;;20.69;38.56;101111.72;677065;28;1387;-88
2022/08/13 01:05:59;;;;;;;4.55;3.40;;;;;;;20.65;38.56;101099.41;681408;29;1320;-88
2022/08/13 01:06:23;;;;;;;4.32;3.20;;;;;;;20.65;38.48;101110.88;682317;28;2117;-88
2022/08/13 01:06:46;;;;;;;6.30;3.30;;;;;;;20.64;38.51;101109.09;680387;29;1230;-88
2022/08/13 01:07:06;;;;;;;7.60;3.60;;;;;;;20.63;38.46;101103.81;675224;29;2052;-89
2022/08/13 01:07:30;;;;;;;7.35;3.70;;;;;;;20.66;38.48;101117.06;684032;28;1742;-88
2022/08/13 01:08:10;;;;;;;6.55;3.60;;;;;;;20.63;38.80;101102.06;684897;28;1351;-88
2022/08/13 01:08:34;;;;;;;5.40;3.40;;;;;;;20.62;38.55;101107.34;680370;29;1631;-88
2022/08/13 01:08:55;;;;;;;4.70;3.35;;;;;;;20.57;38.44;101095.94;682126;29;1546;-88
2022/08/13 01:09:16;;;;;;;4.80;3.45;;;;;;;20.62;38.53;101104.72;676868;28;1967;-88
2022/08/13 01:09:37;;;;;;;4.60;3.40;;;;;;;20.64;38.72;101114.41;682593;28;1522;-88
2022/08/13 01:09:58;;;;;;;4.00;3.15;;;;;;;20.58;38.52;101109.16;681524;29;1513;-88
2022/08/13 01:10:20;;;;;;;3.58;3.10;;;;;;;20.58;38.64;101103.00;684347;29;2018;-88
2022/08/13 01:10:43;;;;;;;4.57;3.33;;;;;;;20.57;38.63;101106.53;687893;28;1244;-88
2022/08/13 01:11:11;;;;;;;6.60;3.65;;;;;;;20.55;38.63;101107.41;679914;28;1331;-88
2022/08/13 01:11:32;;;;;;;7.50;4.00;;;;;;;20.54;38.82;101104.78;680293;29;1620;-88
2022/08/13 01:11:53;;;;;;;7.05;3.90;;;;;;;20.55;38.75;101107.41;684581;28;1102;-88
2022/08/13 01:12:15;;;;;;;4.90;3.53;;;;;;;20.55;38.67;101103.88;678024;29;1904;-88
2022/08/13 01:12:38;;;;;;;5.32;3.67;;;;;;;20.58;38.64;101103.00;679976;28;1715;-88
2022/08/13 01:13:00;;;;;;;6.00;3.50;;;;;;;20.50;38.56;101095.09;679884;28;1221;-88
2022/08/13 01:13:25;;;;;;;5.93;3.70;;;;;;;20.58;38.66;101105.63;683758;28;2115;-88
2022/08/13 01:13:48;;;;;;;5.40;3.75;;;;;;;20.47;38.79;101087.19;682428;28;1544;-88
2022/08/13 01:14:09;;;;;;;5.50;3.97;;;;;;;20.52;38.65;101103.91;675799;29;1975;-88
2022/08/13 01:14:32;;;;;;;5.60;4.10;;;;;;;20.47;38.77;101098.63;677001;28;1768;-88
2022/08/13 01:14:56;;;;;;;4.70;3.75;;;;;;;20.46;38.76;101107.47;679914;29;1250;-88
2022/08/13 01:15:19;;;;;;;3.90;3.50;;;;;;;20.42;38.82;101097.81;673746;29;1810;-88
2022/08/13 01:15:42;;;;;;;3.90;3.40;;;;;;;20.41;39.03;101101.38;681807;28;1257;-89
2022/08/13 01:16:06;;;;;;;6.88;3.60;;;;;;;20.40;39.08;101104.88;684209;28;1200;-89
2022/08/13 01:16:28;;;;;;;7.75;3.47;;;;;;;20.34;38.95;101107.59;677175;29;1530;-89
2022/08/13 01:16:52;;;;;;;5.65;3.38;;;;;;;20.31;38.93;101100.53;684943;28;1379;-88
2022/08/13 01:17:14;;;;;;;4.07;3.30;;;;;;;20.31;39.00;101094.34;678506;29;1982;-88
2022/08/13 01:17:35;;;;;;;5.70;3.50;;;;;;;20.23;39.25;101103.22;679539;29;1431;-88
2022/08/13 01:17:57;;;;;;;6.73;3.57;;;;;;;20.21;39.41;101097.06;679872;29;1075;-89
2022/08/13 01:18:22;;;;;;;6.30;3.60;;;;;;;20.23;39.36;101108.53;683806;28;1912;-89
2022/08/13 01:18:47;;;;;;;5.03;3.50;;;;;;;20.21;39.40;101104.13;682346;29;1342;-88
2022/08/13 01:19:09;;;;;;;4.40;3.40;;;;;;;20.20;39.39;101108.56;678902;29;2040;-88
2022/08/13 01:19:33;;;;;;;5.07;3.33;;;;;;;20.10;39.28;101090.97;681952;28;1798;-87
2022/08/13 01:19:55;;;;;;;5.47;3.47;;;;;;;20.13;39.21;101101.56;682447;28;1245;-88
2022/08/13 01:20:32;;;;;;;5.82;3.40;;;;;;;20.17;39.42;101108.59;678351;29;2053;-88
2022/08/13 01:21:08;;;;;;;6.22;3.67;;;;;;;20.17;39.43;101108.59;683263;28;1363;-88
2022/08/13 01:21:37;;;;;;;6.90;3.88;;;;;;;;;;679390;29;1696;-88
2022/08/13 01:21:59;;;;;;;6.60;4.10;;;;;;;20.09;39.46;101105.09;682169;28;1270;-88
2022/08/13 01:22:21;;;;;;;5.50;3.90;;;;;;;20.11;39.55;101098.91;686304;28;1768;-88
2022/08/13 01:22:44;;;;;;;4.40;3.70;;;;;;;20.12;39.36;101108.59;679468;29;1371;-88
2022/08/13 01:23:07;;;;;;;4.13;3.65;;;;;;;20.09;39.42;101110.38;677719;28;1269;-88
2022/08/13 01:23:30;;;;;;;4.32;3.50;;;;;;;20.09;39.38;101105.09;682460;28;1612;-88
2022/08/13 01:23:54;;;;;;;5.30;3.42;;;;;;;20.07;39.44;101102.47;685167;28;1646;-88
2022/08/13 01:24:14;;;;;;;4.90;3.58;;;;;;;20.05;39.69;101098.06;682269;28;1992;-88
2022/08/13 01:24:37;;;;;;;4.63;3.50;;;;;;;20.11;39.59;101103.34;681710;28;1747;-88
2022/08/13 01:24:59;;;;;;;4.50;3.58;;;;;;;20.06;39.53;101102.47;679643;29;1313;-88
2022/08/13 01:25:22;;;;;;;4.95;3.53;;;;;;;20.07;39.41;101101.59;678140;29;2162;-88
2022/08/13 01:25:44;;;;;;;4.60;3.50;;;;;;;20.07;39.44;101102.47;679971;29;1253;-88
2022/08/13 01:26:05;;;;;;;3.70;3.40;;;;;;;20.09;39.50;101100.69;679521;29;1482;-88
2022/08/13 01:26:27;;;;;;;3.70;3.40;;;;;;;20.09;39.51;101105.97;676421;29;1689;-88
2022/08/13 01:26:48;;;;;;;3.88;3.50;;;;;;;20.10;39.77;101105.09;676794;29;1280;-88
2022/08/13 01:27:10;;;;;;;3.95;3.55;;;;;;;20.11;39.69;101105.97;675851;29;1960;-88
2022/08/13 01:27:31;;;;;;;4.80;3.65;;;;;;;20.12;39.72;101110.38;684097;28;1761;-88
2022/08/13 01:27:53;;;;;;;6.50;3.75;;;;;;;20.16;39.74;101112.13;682486;28;1197;-88
2022/08/13 01:28:14;;;;;;;6.22;3.72;;;;;;;20.13;39.71;101106.84;677909;29;2018;-89
2022/08/13 01:28:38;;;;;;;4.00;3.45;;;;;;;20.10;39.75;101104.22;678965;29;1862;-88
2022/08/13 01:29:04;;;;;;;3.67;3.30;;;;;;;20.13;39.69;101109.50;679470;28;1400;-88
2022/08/13 01:29:25;;;;;;;3.90;3.50;;;;;;;20.11;39.64;101108.63;680854;29;2103;-88
2022/08/13 01:29:50;;;;;;;4.30;3.85;;;;;;;20.13;39.49;101107.75;684948;28;1200;-88
2022/08/13 01:30:14;;;;;;;4.30;3.90;;;;;;;20.11;39.49;101105.97;676111;29;2011;-88
2022/08/13 01:30:39;;;;;;;4.30;3.80;;;;;;;20.15;39.37;101113.00;679342;29;1549;-88
2022/08/13 01:31:05;;;;;;;7.80;3.80;;;;;;;20.11;39.17;101108.63;682232;28;1272;-87
2022/08/13 01:31:27;;;;;;;8.60;3.80;;;;;;;20.12;39.24;101105.09;686688;28;2105;-88
2022/08/13 01:31:51;;;;;;;7.63;3.65;;;;;;;20.15;39.30;101110.34;685195;28;1266;-88
2022/08/13 01:32:15;;;;;;;4.75;3.45;;;;;;;20.10;39.19;101104.22;678363;28;1751;-88
2022/08/13 01:32:37;;;;;;;4.03;3.63;;;;;;;20.09;39.40;101099.78;682429;28;1240;-88
2022/08/13 01:33:02;;;;;;;4.60;4.00;;;;;;;20.05;39.21;101096.31;679920;28;1273;-88
2022/08/13 01:33:24;;;;;;;6.10;4.20;;;;;;;20.13;39.24;101112.16;681918;28;1633;-89
2022/08/13 01:33:47;;;;;;;6.57;4.13;;;;;;;20.10;39.35;101105.09;684515;28;1219;-88
2022/08/13 01:34:08;;;;;;;4.65;3.90;;;;;;;20.04;39.06;101096.31;681547;28;1866;-89
2022/08/13 01:34:31;;;;;;;5.00;3.90;;;;;;;20.07;39.28;101097.19;684829;28;1677;-88
2022/08/13 01:34:52;;;;;;;4.35;3.70;;;;;;;20.09;39.46;101102.44;684403;28;1429;-88
2022/08/13 01:35:16;;;;;;;3.92;3.63;;;;;;;20.12;39.43;101111.25;678553;28;1887;-88
2022/08/13 01:35:38;;;;;;;4.60;3.70;;;;;;;20.11;39.56;101103.34;681737;29;1755;-88
2022/08/13 01:36:01;;;;;;;4.60;3.70;;;;;;;20.04;39.32;101101.63;684560;28;1272;-88
2022/08/13 01:36:24;;;;;;;5.03;3.58;;;;;;;19.99;39.38;101099.84;684505;28;2218;-88
2022/08/13 01:36:49;;;;;;;4.90;3.42;;;;;;;20.02;39.55;101108.69;683794;28;1311;-88
2022/08/13 01:37:11;;;;;;;5.95;3.70;;;;;;;20.00;39.47;101106.91;686329;28;1955;-88
2022/08/13 01:37:34;;;;;;;7.93;3.65;;;;;;;20.02;39.57;101108.69;683052;28;1682;-88
2022/08/13 01:37:57;;;;;;;8.15;3.97;;;;;;;20.04;39.60;101101.63;682406;28;1266;-88
2022/08/13 01:38:21;;;;;;;9.43;4.30;;;;;;;20.06;39.53;101108.66;682846;28;1920;-88
2022/08/13 01:38:43;;;;;;;6.78;4.20;;;;;;;20.05;39.51;101104.25;679386;29;1380;-88
2022/08/13 01:39:07;;;;;;;7.70;4.35;;;;;;;20.07;39.49;101101.59;674786;29;1897;-88
2022/08/13 01:39:28;;;;;;;6.45;4.38;;;;;;;20.03;39.50;101099.84;677717;28;1916;-88
2022/08/13 01:39:50;;;;;;;6.68;4.60;;;;;;;19.98;39.49;101095.44;682146;28;1205;-88
2022/08/13 01:40:11;;;;;;;4.30;3.88;;;;;;;20.00;39.55;101101.63;678642;29;1768;-88
2022/08/13 01:40:33;;;;;;;4.32;3.85;;;;;;;19.97;39.72;101099.00;678920;28;1660;-88
2022/08/13 01:40:55;;;;;;;4.28;3.63;;;;;;;20.02;39.63;101108.69;677089;29;1304;-89
2022/08/13 01:41:16;;;;;;;4.50;3.60;;;;;;;19.96;39.77;101093.69;683523;28;1988;-88
2022/08/13 01:41:38;;;;;;;4.70;3.60;;;;;;;19.96;39.83;101099.00;680888;28;1802;-88
2022/08/13 01:42:00;;;;;;;4.00;3.60;;;;;;;19.95;39.83;101098.13;679926;28;1193;-88
2022/08/13 01:42:22;;;;;;;4.03;3.63;;;;;;;19.93;39.77;101094.63;679658;29;1699;-88
2022/08/13 01:42:46;;;;;;;3.90;3.60;;;;;;;19.99;39.80;101102.50;684412;28;1245;-88
2022/08/13 01:43:08;;;;;;;5.00;3.67;;;;;;;19.94;39.82;101096.38;679244;28;1435;-88
2022/08/13 01:43:30;;;;;;;5.65;3.80;;;;;;;19.96;39.85;101105.19;678759;29;1441;-88
2022/08/13 01:43:52;;;;;;;5.30;3.75;;;;;;;19.90;39.65;101089.31;684722;28;1204;-88
2022/08/13 01:44:15;;;;;;;5.05;3.65;;;;;;;19.90;39.84;101089.31;681342;28;1906;-88
2022/08/13 01:44:37;;;;;;;4.70;3.60;;;;;;;19.95;39.96;101094.59;676292;29;1837;-88
2022/08/13 01:44:59;;;;;;;3.83;3.53;;;;;;;19.92;39.96;101097.28;679354;29;1521;-89
2022/08/13 01:45:20;;;;;;;3.90;3.50;;;;;;;19.96;40.03;101102.53;680455;28;2196;-88
2022/08/13 01:45:43;;;;;;;3.88;3.45;;;;;;;19.93;40.09;101093.72;679661;28;1684;-88
2022/08/13 01:46:07;;;;;;;4.75;3.45;;;;;;;19.87;40.06;101089.31;686823;28;1598;-88
2022/08/13 01:50:28;;;;;;;4.72;3.28;;;;;;;19.88;40.06;101099.06;679532;29;1724;-88
2022/08/13 01:50:31;;;;;;;4.30;3.90;;;;;;;19.81;40.21;101098.19;679277;29;1561;-88
2022/08/13 01:50:52;;;;;;;4.20;3.80;;;;;;;19.79;40.18;101096.44;680733;29;2136;-88
2022/08/13 01:51:36;;;;;;;4.03;3.63;;;;;;;19.79;40.27;101096.44;673299;29;2055;-88
2022/08/13 01:51:57;;;;;;;3.75;3.33;;;;;;;19.75;40.32;101086.72;686020;28;1492;-88
2022/08/13 01:52:18;;;;;;;4.15;3.53;;;;;;;19.78;40.30;101089.38;686344;28;1590;-88
2022/08/13 01:52:45;;;;;;;5.50;3.80;;;;;;;19.77;40.34;101098.19;679283;29;1810;-88
2022/08/13 01:53:09;;;;;;;5.07;3.60;;;;;;;19.82;40.39;101101.69;681452;28;1377;-88
2022/08/13 01:53:30;;;;;;;4.03;3.42;;;;;;;19.77;40.26;101100.84;674809;28;1649;-88
2022/08/13 01:53:54;;;;;;;4.00;3.30;;;;;;;19.78;40.66;101105.25;685025;28;1313;-88
2022/08/13 01:54:17;;;;;;;7.13;3.55;;;;;;;19.72;40.42;101100.84;680814;29;1490;-88
2022/08/13 01:54:39;;;;;;;8.90;3.60;;;;;;;19.73;40.41;101103.50;671820;29;1476;-88
2022/08/13 01:55:05;;;;;;;9.27;3.50;;;;;;;19.68;40.50;101102.63;684088;28;1497;-88
2022/08/13 01:55:43;;;;;;;7.00;3.30;;;;;;;19.61;40.60;101092.09;685570;28;2288;-88
2022/08/13 01:56:05;;;;;;;5.80;3.35;;;;;;;19.62;40.61;101101.81;676228;29;1267;-88
2022/08/13 01:56:30;;;;;;;3.88;3.20;;;;;;;19.53;40.85;101092.13;683817;28;2169;-88
2022/08/13 01:56:51;;;;;;;3.50;3.10;;;;;;;19.56;40.94;101094.78;685530;28;1085;-88
2022/08/13 01:57:12;;;;;;;3.70;3.30;;;;;;;19.58;40.87;101107.13;679216;29;2002;-88